Terminal Aerodrome Forecast
Issued by NWS

Home | Current Version | Previous Version | Graphics & Text | Print | Product List | Glossary On
Versions: 1 2 3 4 5 6 7 8 9 10 11 12 13 14 15 16 17
000
FTUS43 KBIS 261100
TAFDIK
TAF
KDIK 261125Z 2612/2712 18007KT P6SM SCT025 BKN090
     FM261600 16008KT P6SM SCT015 BKN070
     FM270000 14008KT P6SM SCT050
     FM270300 16005KT P6SM SKC=

USA.gov is the U.S. government's official web portal to all federal, state and local government web resources and services.